Time,TemperatureF,DewpointF,PressureIn,WindDirection,WindDirectionDegrees,WindSpeedMPH,WindSpeedGustMPH,Humidity,HourlyPrecipIn,Conditions,Clouds,dailyrainin,SoftwareType,DateUTC
2013-05-18 00:00:00,60.3,49.3,29.76,East,92,0.0,0.0,67,0.00,,---,0.00,VWS V13.01,2013-05-18 04:00:00,
2013-05-18 00:30:00,60.0,49.4,29.74,ENE,62,0.0,1.0,68,0.00,,---,0.00,VWS V13.01,2013-05-18 04:30:00,
2013-05-18 01:00:00,59.8,49.2,29.74,North,7,0.0,1.0,68,0.00,,---,0.00,VWS V13.01,2013-05-18 05:00:00,
2013-05-18 01:30:00,59.4,49.2,29.74,NNE,17,0.0,4.0,69,0.00,,---,0.00,VWS V13.01,2013-05-18 05:30:00,
2013-05-18 02:00:00,59.0,49.2,29.73,NNE,14,0.0,6.0,70,0.00,,---,0.00,VWS V13.01,2013-05-18 06:00:00,
2013-05-18 02:30:00,58.7,49.3,29.71,ENE,59,0.0,1.0,71,0.00,,---,0.00,VWS V13.01,2013-05-18 06:30:00,
2013-05-18 03:00:00,58.5,49.1,29.71,ESE,102,0.0,1.0,71,0.00,,---,0.00,VWS V13.01,2013-05-18 07:00:00,
2013-05-18 03:30:00,58.2,49.2,29.72,North,10,0.0,1.0,72,0.00,,---,0.00,VWS V13.01,2013-05-18 07:30:00,
2013-05-18 04:00:00,58.0,49.4,29.72,East,87,0.0,0.0,73,0.00,,---,0.00,VWS V13.01,2013-05-18 08:00:00,
2013-05-18 04:30:00,57.5,48.9,29.73,SE,132,0.0,0.0,73,0.00,,---,0.00,VWS V13.01,2013-05-18 08:30:00,
2013-05-18 05:00:00,57.0,48.8,29.74,ESE,118,0.0,1.0,74,0.00,,---,0.00,VWS V13.01,2013-05-18 09:00:00,
2013-05-18 05:30:00,56.9,48.7,29.75,SSW,212,0.0,1.0,74,0.00,,---,0.00,VWS V13.01,2013-05-18 09:30:00,
2013-05-18 06:00:00,56.9,48.7,29.76,NE,45,0.0,0.0,74,0.00,,---,0.00,VWS V13.01,2013-05-18 10:00:00,
2013-05-18 06:30:00,56.9,48.7,29.77,East,94,0.0,0.0,74,0.00,,---,0.00,VWS V13.01,2013-05-18 10:30:00,
2013-05-18 07:00:00,56.6,48.8,29.76,ESE,110,0.0,0.0,75,0.00,,---,0.00,VWS V13.01,2013-05-18 11:00:00,
2013-05-18 07:30:00,56.5,48.7,29.77,NE,34,0.0,0.0,75,0.00,,---,0.00,VWS V13.01,2013-05-18 11:30:00,
2013-05-18 08:00:00,57.1,48.9,29.81,NE,37,0.0,1.0,74,0.00,,---,0.00,VWS V13.01,2013-05-18 12:00:00,
2013-05-18 08:30:00,58.7,50.1,29.76,North,5,0.0,1.0,73,0.00,,---,0.00,VWS V13.01,2013-05-18 12:30:00,
2013-05-18 09:00:00,61.7,49.8,29.79,SE,140,0.0,1.0,65,0.00,,---,0.00,VWS V13.01,2013-05-18 13:00:00,
2013-05-18 09:30:00,65.0,51.2,29.75,ESE,122,0.0,5.0,61,0.00,,---,0.00,VWS V13.01,2013-05-18 13:30:00,
2013-05-18 10:00:00,68.6,52.3,29.74,SE,127,0.0,7.0,56,0.00,,---,0.00,VWS V13.01,2013-05-18 14:00:00,
2013-05-18 10:30:00,71.2,52.2,29.76,SSE,148,0.0,6.0,51,0.00,,---,0.00,VWS V13.01,2013-05-18 14:30:00,
2013-05-18 11:00:00,74.3,51.6,29.73,SSE,157,0.0,1.0,45,0.00,,---,0.00,VWS V13.01,2013-05-18 15:00:00,
2013-05-18 11:30:00,75.9,52.5,29.71,SSE,155,0.0,6.0,44,0.00,,---,0.00,VWS V13.01,2013-05-18 15:30:00,
2013-05-18 12:00:00,77.2,53.6,29.72,SE,144,0.0,5.0,44,0.00,,---,0.00,VWS V13.01,2013-05-18 16:00:00,
2013-05-18 12:30:00,77.4,54.4,29.71,ESE,118,0.0,2.0,45,0.00,,---,0.00,VWS V13.01,2013-05-18 16:30:00,
2013-05-18 13:00:00,79.1,56.0,29.70,SE,137,0.0,2.0,45,0.00,,---,0.00,VWS V13.01,2013-05-18 17:00:00,
2013-05-18 13:30:00,79.9,56.7,29.68,South,178,0.0,2.0,45,0.00,,---,0.00,VWS V13.01,2013-05-18 17:30:00,
2013-05-18 14:00:00,81.2,57.2,29.67,ESE,121,0.0,2.0,44,0.00,,---,0.00,VWS V13.01,2013-05-18 18:00:00,
2013-05-18 14:30:00,82.1,57.4,29.67,South,188,0.0,1.0,43,0.00,,---,0.00,VWS V13.01,2013-05-18 18:30:00,
2013-05-18 15:00:00,82.6,59.1,29.66,South,176,0.0,2.0,45,0.00,,---,0.00,VWS V13.01,2013-05-18 19:00:00,
2013-05-18 15:30:00,84.0,59.1,29.66,ESE,123,0.0,2.0,43,0.00,,---,0.00,VWS V13.01,2013-05-18 19:30:00,
2013-05-18 16:00:00,84.2,61.2,29.66,East,96,0.0,3.0,46,0.00,,---,0.00,VWS V13.01,2013-05-18 20:00:00,
2013-05-18 16:30:00,82.2,60.6,29.65,ENE,69,0.0,1.0,48,0.00,,---,0.00,VWS V13.01,2013-05-18 20:30:00,
2013-05-18 17:00:00,81.1,60.2,29.64,NE,45,0.0,0.0,49,0.00,,---,0.00,VWS V13.01,2013-05-18 21:00:00,
2013-05-18 17:30:00,80.5,60.2,29.66,SSE,161,0.0,1.0,50,0.00,,---,0.00,VWS V13.01,2013-05-18 21:30:00,
2013-05-18 18:00:00,80.3,60.5,29.63,SSE,162,0.0,0.0,51,0.00,,---,0.00,VWS V13.01,2013-05-18 22:00:00,
2013-05-18 18:30:00,82.7,61.6,29.63,SSE,162,0.0,0.0,49,0.00,,---,0.00,VWS V13.01,2013-05-18 22:30:00,
2013-05-18 19:00:00,80.2,61.5,29.62,South,176,0.0,1.0,53,0.00,,---,0.00,VWS V13.01,2013-05-18 23:00:00,
2013-05-18 19:30:00,79.8,61.2,29.62,South,176,0.0,0.0,53,0.00,,---,0.00,VWS V13.01,2013-05-18 23:30:00,
2013-05-18 20:00:00,79.0,61.0,29.64,South,176,0.0,0.0,54,0.00,,---,0.00,VWS V13.01,2013-05-19 00:00:00,
2013-05-18 20:30:00,76.9,61.0,29.63,South,176,0.0,0.0,58,0.00,,---,0.00,VWS V13.01,2013-05-19 00:30:00,
2013-05-18 21:00:00,74.7,61.7,29.63,South,176,0.0,0.0,64,0.00,,---,0.00,VWS V13.01,2013-05-19 01:00:00,
2013-05-18 21:30:00,72.6,61.9,29.63,South,176,0.0,0.0,69,0.00,,---,0.00,VWS V13.01,2013-05-19 01:30:00,
2013-05-18 22:00:00,71.2,60.9,29.63,South,176,0.0,0.0,70,0.00,,---,0.00,VWS V13.01,2013-05-19 02:00:00,
2013-05-18 22:30:00,71.0,60.7,29.64,NE,40,0.0,0.0,70,0.00,,---,0.00,VWS V13.01,2013-05-19 02:30:00,
2013-05-18 23:00:00,71.1,59.2,29.63,NNE,27,0.0,0.0,66,0.00,,---,0.00,VWS V13.01,2013-05-19 03:00:00,
2013-05-18 23:30:00,71.2,60.1,29.63,SE,125,0.0,0.0,68,0.00,,---,0.00,VWS V13.01,2013-05-19 03:30:00,